Time;durP1;ratioP1;P1;durP2;ratioP2;P2;SDS_P1;SDS_P2;PMS_P1;PMS_P2;Temp;Humidity;BMP_temperature;BMP_pressure;BME280_temperature;BME280_humidity;BME280_pressure;Samples;Min_cycle;Max_cycle;Signal;HPM_P1;HPM_P2
2022/04/11 04:03:08;;;;;;;14.03;11.30;;;-0.40;99.90;;;;;;5741433;23;21233;-75
2022/04/11 04:05:40;;;;;;;13.30;10.97;;;-0.40;99.90;;;;;;4875576;29;20471;-77
2022/04/11 04:08:08;;;;;;;12.63;11.20;;;-0.40;99.90;;;;;;4861298;29;20430;-76
2022/04/11 04:10:36;;;;;;;14.87;11.17;;;-0.40;99.90;;;;;;4875365;29;20478;-79
2022/04/11 04:13:05;;;;;;;13.60;10.67;;;-0.40;99.90;;;;;;4879797;29;20490;-79
2022/04/11 04:15:33;;;;;;;13.77;11.20;;;-0.40;99.90;;;;;;4879646;29;20467;-78
2022/04/11 04:18:02;;;;;;;12.60;10.07;;;-0.40;99.90;;;;;;4879178;29;20506;-80
2022/04/11 04:20:31;;;;;;;12.50;10.17;;;-0.40;99.90;;;;;;4878369;29;21015;-78
2022/04/11 04:22:59;;;;;;;14.00;10.27;;;-0.40;99.90;;;;;;4879209;29;20472;-77
2022/04/11 04:25:29;;;;;;;10.30;9.20;;;-0.40;99.90;;;;;;4878844;29;20539;-76
2022/04/11 04:27:57;;;;;;;12.57;10.10;;;-0.40;99.90;;;;;;4876698;29;20569;-76
2022/04/11 04:30:26;;;;;;;11.70;9.30;;;-0.30;99.90;;;;;;4877607;29;20445;-76
2022/04/11 04:32:54;;;;;;;12.87;9.80;;;-0.30;99.90;;;;;;4877647;29;21020;-78
2022/04/11 04:35:22;;;;;;;13.93;9.67;;;-0.30;99.90;;;;;;4877933;29;21032;-77
2022/04/11 04:37:52;;;;;;;12.80;9.43;;;-0.30;99.90;;;;;;4879382;29;20523;-77
2022/04/11 04:40:20;;;;;;;11.63;8.70;;;-0.20;99.90;;;;;;4878017;29;20487;-77
2022/04/11 04:42:49;;;;;;;10.87;9.40;;;-0.20;99.90;;;;;;4878336;29;20486;-79
2022/04/11 04:45:18;;;;;;;11.47;9.27;;;-0.10;99.90;;;;;;4878641;29;20486;-76
2022/04/11 04:47:49;;;;;;;10.97;8.57;;;0.00;99.90;;;;;;4879202;29;20494;-75
2022/04/11 04:50:17;;;;;;;11.73;8.60;;;-0.10;99.90;;;;;;4873791;29;20465;-76
2022/04/11 04:52:45;;;;;;;11.53;8.67;;;-0.10;99.90;;;;;;4878608;29;20462;-78
2022/04/11 04:55:16;;;;;;;10.17;9.00;;;-0.10;99.90;;;;;;4878470;29;20818;-78
2022/04/11 04:57:44;;;;;;;11.50;8.50;;;0.00;99.90;;;;;;4878318;29;20473;-77
2022/04/11 05:00:13;;;;;;;9.73;8.30;;;0.00;99.90;;;;;;4878059;29;20526;-76
2022/04/11 05:02:42;;;;;;;10.43;8.30;;;0.10;99.90;;;;;;4877956;29;20490;-77
2022/04/11 05:05:13;;;;;;;9.77;8.57;;;0.10;99.90;;;;;;4878445;29;20519;-77
2022/04/11 05:07:42;;;;;;;11.57;8.33;;;0.10;99.90;;;;;;4878079;29;20903;-77
2022/04/11 05:10:17;;;;;;;10.97;8.87;;;0.20;99.90;;;;;;4872938;29;20569;-76
2022/04/11 05:12:46;;;;;;;11.63;9.10;;;0.20;99.90;;;;;;4878668;29;20517;-76
2022/04/11 05:15:15;;;;;;;12.60;9.73;;;0.30;99.90;;;;;;4878591;29;20463;-75
2022/04/11 05:17:43;;;;;;;12.57;9.23;;;0.40;99.90;;;;;;4878736;29;20521;-77
2022/04/11 05:20:11;;;;;;;11.00;8.83;;;0.40;99.90;;;;;;4878073;29;21004;-76
2022/04/11 05:22:39;;;;;;;10.77;9.00;;;0.60;99.90;;;;;;4878634;29;20516;-77
2022/04/11 05:25:08;;;;;;;11.97;9.63;;;0.60;99.90;;;;;;4878401;29;20953;-75
2022/04/11 05:27:38;;;;;;;14.73;9.93;;;0.70;99.90;;;;;;4878623;29;20530;-72
2022/04/11 05:30:10;;;;;;;13.03;9.03;;;0.80;99.90;;;;;;4878134;29;20490;-74
2022/04/11 05:32:38;;;;;;;16.83;9.53;;;0.80;99.90;;;;;;4879451;29;20542;-77
2022/04/11 05:35:08;;;;;;;11.27;9.30;;;0.90;99.90;;;;;;4880957;29;21018;-74
2022/04/11 05:37:36;;;;;;;9.77;8.20;;;0.90;99.90;;;;;;4880103;29;20988;-77
2022/04/11 05:40:09;;;;;;;10.77;8.37;;;1.00;99.90;;;;;;4878580;29;20533;-78
2022/04/11 05:42:38;;;;;;;11.23;8.13;;;1.10;99.90;;;;;;4878686;29;20473;-74
2022/04/11 05:45:07;;;;;;;9.67;7.43;;;1.20;99.90;;;;;;4874217;29;20502;-78
2022/04/11 05:47:35;;;;;;;9.17;7.70;;;1.30;99.90;;;;;;4878260;29;20490;-78
2022/04/11 05:50:03;;;;;;;9.07;7.13;;;1.40;99.90;;;;;;4877066;29;20545;-77
2022/04/11 05:52:33;;;;;;;8.97;7.07;;;1.50;99.90;;;;;;4878449;29;20537;-78
2022/04/11 05:55:03;;;;;;;8.47;6.90;;;1.50;99.90;;;;;;4877350;29;20542;-73
2022/04/11 05:57:31;;;;;;;9.97;6.50;;;1.70;99.90;;;;;;4875624;29;20245;-76
2022/04/11 06:00:00;;;;;;;7.70;6.60;;;1.80;99.90;;;;;;4878151;29;20522;-77
2022/04/11 06:02:28;;;;;;;7.57;6.50;;;1.90;99.90;;;;;;4878809;29;20493;-77
2022/04/11 06:04:56;;;;;;;8.33;5.83;;;1.90;99.90;;;;;;4878355;29;20474;-76
2022/04/11 06:07:32;;;;;;;8.30;6.30;;;2.10;99.90;;;;;;4878383;29;20214;-76
2022/04/11 06:10:00;;;;;;;10.47;5.87;;;2.30;99.90;;;;;;4877973;29;20222;-76
2022/04/11 06:12:28;;;;;;;7.50;5.90;;;2.50;99.90;;;;;;4878548;29;20317;-80
2022/04/11 06:14:56;;;;;;;8.63;5.80;;;2.70;99.90;;;;;;4879583;29;20253;-75
2022/04/11 06:17:26;;;;;;;8.50;5.53;;;3.20;99.90;;;;;;4882659;29;20256;-75
2022/04/11 06:19:57;;;;;;;8.17;5.70;;;3.90;99.90;;;;;;4885006;29;20265;-76
2022/04/11 06:22:26;;;;;;;9.53;5.60;;;3.70;99.90;;;;;;4878761;29;20234;-77
2022/04/11 06:25:00;;;;;;;7.20;5.27;;;4.50;99.90;;;;;;4878371;29;20320;-78
2022/04/11 06:27:29;;;;;;;9.47;5.40;;;4.90;99.90;;;;;;4878884;29;20278;-77
2022/04/11 06:29:58;;;;;;;6.67;5.00;;;5.10;99.90;;;;;;4878314;29;20736;-75
2022/04/11 06:32:28;;;;;;;5.50;4.47;;;5.70;99.90;;;;;;4866965;29;20246;-76
2022/04/11 06:34:57;;;;;;;8.23;4.60;;;5.90;99.90;;;;;;4878453;29;20267;-73
2022/04/11 06:37:25;;;;;;;8.17;5.40;;;6.50;99.90;;;;;;4890016;29;20218;-74
2022/04/11 06:39:54;;;;;;;7.40;4.77;;;7.20;99.90;;;;;;4881465;29;20704;-75
2022/04/11 06:42:25;;;;;;;6.33;4.63;;;7.60;99.90;;;;;;4883046;29;20617;-74
2022/04/11 06:44:53;;;;;;;6.57;4.03;;;7.70;99.90;;;;;;4880122;29;20218;-77
2022/04/11 06:47:23;;;;;;;6.13;4.53;;;7.90;99.90;;;;;;4882667;29;20214;-78
2022/04/11 06:49:52;;;;;;;6.67;4.50;;;7.60;99.90;;;;;;4884686;29;20222;-77
2022/04/11 06:52:20;;;;;;;7.33;4.73;;;7.30;99.90;;;;;;4883964;29;20210;-76
2022/04/11 06:54:49;;;;;;;6.63;4.80;;;7.10;99.90;;;;;;4879252;29;20303;-76
2022/04/11 06:57:17;;;;;;;6.43;4.43;;;7.20;99.90;;;;;;4881917;29;20242;-78
2022/04/11 06:59:45;;;;;;;6.17;4.87;;;7.40;99.90;;;;;;4881982;29;20221;-76
2022/04/11 07:02:17;;;;;;;6.70;4.67;;;7.70;99.90;;;;;;4882114;29;20665;-78
2022/04/11 07:04:45;;;;;;;6.13;4.17;;;8.60;99.90;;;;;;4880995;29;20222;-78
2022/04/11 07:07:19;;;;;;;6.33;4.47;;;9.20;99.90;;;;;;4881246;29;20642;-79
2022/04/11 07:09:47;;;;;;;6.63;4.30;;;9.10;99.90;;;;;;4881777;29;20237;-79
2022/04/11 07:12:15;;;;;;;5.43;4.30;;;9.10;99.90;;;;;;4882395;29;20214;-79
2022/04/11 07:14:44;;;;;;;6.03;4.43;;;8.80;99.90;;;;;;4881833;29;20286;-77
2022/04/11 07:17:12;;;;;;;7.23;4.03;;;9.40;99.90;;;;;;4889121;29;20217;-77
2022/04/11 07:19:40;;;;;;;5.73;4.30;;;9.50;99.90;;;;;;4881854;29;20246;-78
2022/04/11 07:22:09;;;;;;;5.60;3.80;;;9.70;99.90;;;;;;4881178;29;20629;-75
2022/04/11 07:24:39;;;;;;;5.40;4.47;;;9.80;99.90;;;;;;4882015;29;20234;-77
2022/04/11 07:27:07;;;;;;;5.90;4.00;;;9.50;99.90;;;;;;4882046;29;20234;-79
2022/04/11 07:29:35;;;;;;;5.57;3.70;;;10.10;99.90;;;;;;4882218;29;20249;-76
2022/04/11 07:32:04;;;;;;;4.37;3.70;;;11.10;99.90;;;;;;4881610;29;20235;-74
2022/04/11 07:34:33;;;;;;;4.53;3.77;;;11.80;99.40;;;;;;4880610;29;20214;-75
2022/04/11 07:37:01;;;;;;;3.70;3.27;;;11.80;97.30;;;;;;4884799;29;20677;-75
2022/04/11 07:39:29;;;;;;;5.10;3.60;;;12.80;99.10;;;;;;4886557;29;20274;-78
2022/04/11 07:42:00;;;;;;;6.33;3.73;;;11.70;96.90;;;;;;4881016;29;20570;-74
2022/04/11 07:44:28;;;;;;;5.10;3.67;;;11.70;96.60;;;;;;4881013;29;20242;-74
2022/04/11 07:46:57;;;;;;;4.70;3.73;;;12.70;96.60;;;;;;4880518;29;20258;-73
2022/04/11 07:49:25;;;;;;;5.60;3.60;;;13.70;93.40;;;;;;4880688;29;20262;-76
2022/04/11 07:51:53;;;;;;;4.90;3.50;;;13.50;92.90;;;;;;4880743;29;20298;-73
2022/04/11 07:54:21;;;;;;;5.67;3.37;;;14.10;92.20;;;;;;4881293;29;20214;-77
2022/04/11 07:56:50;;;;;;;5.13;3.50;;;14.50;90.30;;;;;;4880615;29;20575;-76
2022/04/11 07:59:19;;;;;;;4.33;3.33;;;14.90;87.80;;;;;;4880391;29;20564;-74
2022/04/11 08:01:47;;;;;;;5.27;3.50;;;15.30;87.60;;;;;;4880240;29;20321;-73
2022/04/11 08:04:18;;;;;;;3.83;3.30;;;14.90;87.70;;;;;;4879708;29;20282;-76
2022/04/11 08:06:46;;;;;;;5.43;3.50;;;15.70;84.40;;;;;;4880027;29;20226;-74
2022/04/11 08:09:15;;;;;;;3.17;2.73;;;16.00;83.90;;;;;;4880483;29;20222;-75
2022/04/11 08:11:43;;;;;;;5.13;3.00;;;16.50;81.40;;;;;;4881318;29;20270;-75
2022/04/11 08:14:14;;;;;;;3.77;2.93;;;17.00;77.10;;;;;;4881708;29;20250;-73
2022/04/11 08:16:44;;;;;;;5.13;3.40;;;16.90;76.20;;;;;;4880240;29;20214;-74
2022/04/11 08:19:12;;;;;;;3.27;2.70;;;17.40;73.60;;;;;;4880855;29;20214;-74
2022/04/11 08:21:41;;;;;;;3.20;2.80;;;17.80;71.60;;;;;;4879738;29;20265;-75
2022/04/11 08:24:09;;;;;;;5.10;3.00;;;18.30;69.50;;;;;;4880074;29;20257;-76
2022/04/11 08:26:37;;;;;;;2.90;2.70;;;18.70;67.60;;;;;;4879645;29;20265;-75
2022/04/11 08:29:05;;;;;;;3.13;2.70;;;17.90;68.80;;;;;;4879189;29;20360;-74
2022/04/11 08:31:33;;;;;;;4.63;2.73;;;18.40;67.50;;;;;;4878866;29;20652;-74
2022/04/11 08:34:03;;;;;;;4.00;3.10;;;16.70;68.70;;;;;;4875880;29;20706;-78
2022/04/11 08:36:31;;;;;;;4.13;2.93;;;16.10;70.30;;;;;;4879179;29;20647;-74
2022/04/11 08:38:59;;;;;;;4.03;3.07;;;17.20;71.80;;;;;;4879263;29;20309;-75
2022/04/11 08:41:32;;;;;;;3.87;2.90;;;16.60;68.40;;;;;;4879477;29;20301;-76
2022/04/11 08:44:02;;;;;;;3.03;2.70;;;16.40;69.10;;;;;;4878633;29;20199;-76
2022/04/11 08:46:31;;;;;;;4.37;3.10;;;15.90;69.80;;;;;;4879234;29;20286;-74
2022/04/11 08:49:00;;;;;;;4.60;2.80;;;16.40;71.50;;;;;;4877619;29;20252;-77
2022/04/11 08:51:32;;;;;;;4.60;2.57;;;17.70;68.30;;;;;;4878291;29;20207;-74
2022/04/11 08:54:01;;;;;;;3.23;2.70;;;17.50;68.40;;;;;;4878293;29;20234;-75
2022/04/11 08:56:29;;;;;;;3.57;2.70;;;18.60;65.00;;;;;;4877995;29;20220;-75
2022/04/11 08:58:57;;;;;;;3.40;2.93;;;19.00;64.00;;;;;;4878608;29;20309;-75
2022/04/11 09:01:26;;;;;;;4.23;3.00;;;18.40;64.20;;;;;;4877648;29;20284;-76
2022/04/11 09:03:55;;;;;;;3.80;2.60;;;18.90;65.50;;;;;;4878684;29;20233;-75
2022/04/11 09:06:24;;;;;;;4.57;3.00;;;19.30;62.80;;;;;;4879492;29;20309;-76
2022/04/11 09:08:55;;;;;;;4.70;2.90;;;18.80;63.30;;;;;;4878954;29;20218;-75
2022/04/11 09:11:31;;;;;;;4.90;3.00;;;18.80;63.60;;;;;;4879297;29;20270;-75
2022/04/11 09:14:01;;;;;;;5.27;3.10;;;19.20;63.80;;;;;;4879305;29;20625;-76
2022/04/11 09:16:29;;;;;;;4.97;3.13;;;19.10;62.10;;;;;;4879034;29;20234;-76
2022/04/11 09:18:57;;;;;;;5.13;3.00;;;19.30;63.50;;;;;;4878906;29;20289;-78
2022/04/11 09:21:27;;;;;;;5.90;3.00;;;19.20;62.50;;;;;;4879104;29;20617;-74
2022/04/11 09:24:15;;;;;;;3.47;2.93;;;18.90;63.70;;;;;;4879350;29;20732;-74
2022/04/11 09:26:44;;;;;;;3.47;2.93;;;18.60;64.60;;;;;;4879414;29;20266;-74
2022/04/11 09:29:12;;;;;;;3.43;2.93;;;18.90;63.90;;;;;;4879279;29;20275;-76
2022/04/11 09:31:40;;;;;;;7.23;3.87;;;18.90;66.20;;;;;;4879007;29;20282;-76
2022/04/11 09:34:17;;;;;;;5.07;3.10;;;19.20;65.30;;;;;;4879039;29;20697;-76
2022/04/11 09:36:49;;;;;;;4.73;3.43;;;19.90;62.10;;;;;;4878805;29;20233;-78
2022/04/11 09:39:32;;;;;;;3.77;3.37;;;19.70;62.80;;;;;;4867751;29;20232;-77
2022/04/11 09:42:04;;;;;;;3.90;3.03;;;18.60;63.50;;;;;;4877994;29;20317;-76
2022/04/11 09:44:34;;;;;;;6.03;3.00;;;18.90;65.10;;;;;;4880130;29;20210;-77
2022/04/11 09:47:23;;;;;;;4.70;2.90;;;20.40;61.50;;;;;;4880730;29;20250;-75
2022/04/11 09:49:51;;;;;;;4.07;3.10;;;17.70;62.00;;;;;;4878839;29;20218;-74
2022/04/11 09:52:29;;;;;;;3.97;3.17;;;17.20;64.70;;;;;;4878809;29;20294;-74
2022/04/11 09:54:59;;;;;;;7.13;3.03;;;17.40;65.60;;;;;;4879896;29;20229;-74
2022/04/11 09:57:31;;;;;;;4.57;3.07;;;18.30;64.60;;;;;;4880282;29;20224;-76
2022/04/11 10:00:04;;;;;;;3.57;2.80;;;18.50;65.30;;;;;;4879479;29;20225;-74
2022/04/11 10:02:35;;;;;;;3.43;3.07;;;18.90;65.70;;;;;;4879995;29;20233;-75
2022/04/11 10:05:07;;;;;;;5.50;3.27;;;20.20;64.30;;;;;;4879499;29;20586;-75
2022/04/11 10:07:35;;;;;;;4.43;3.63;;;19.70;61.00;;;;;;4866619;29;20248;-76
2022/04/11 10:10:08;;;;;;;6.97;2.93;;;19.20;62.50;;;;;;4879362;29;20214;-75
2022/04/11 10:12:37;;;;;;;5.67;3.40;;;19.80;61.20;;;;;;4878937;29;20696;-75
2022/04/11 10:15:06;;;;;;;4.37;3.20;;;19.70;62.80;;;;;;4878779;29;20297;-73
2022/04/11 10:17:34;;;;;;;4.27;2.90;;;20.00;65.00;;;;;;4876242;29;20222;-77
2022/04/11 10:20:03;;;;;;;4.77;3.20;;;20.00;62.10;;;;;;4870166;29;20274;-76
2022/04/11 10:22:38;;;;;;;3.80;3.30;;;19.90;61.50;;;;;;4882300;29;20243;-76
2022/04/11 10:25:14;;;;;;;3.63;3.00;;;18.80;59.30;;;;;;4885485;29;20217;-75
2022/04/11 10:27:42;;;;;;;4.87;2.90;;;17.60;63.50;;;;;;4882875;29;20320;-78
2022/04/11 10:30:27;;;;;;;4.90;2.93;;;18.70;64.90;;;;;;4882105;29;20348;-75
2022/04/11 10:32:56;;;;;;;4.63;2.90;;;19.50;66.10;;;;;;4882238;29;20296;-78
2022/04/11 10:35:34;;;;;;;3.60;2.97;;;20.20;61.20;;;;;;4881330;29;20246;-75
2022/04/11 10:38:06;;;;;;;4.67;3.20;;;20.00;61.30;;;;;;4880572;29;20400;-75
2022/04/11 10:40:36;;;;;;;4.40;3.00;;;18.50;61.40;;;;;;4881656;29;20218;-75
2022/04/11 10:43:26;;;;;;;5.17;3.50;;;18.40;62.50;;;;;;4882493;29;20223;-76
2022/04/11 10:45:58;;;;;;;5.10;3.23;;;18.30;62.30;;;;;;4883264;29;20264;-75
2022/04/11 10:48:58;;;;;;;4.37;3.47;;;19.40;60.50;;;;;;4881998;29;20293;-76
2022/04/11 10:51:27;;;;;;;3.60;3.07;;;18.30;60.20;;;;;;4870112;29;20214;-75
2022/04/11 10:54:18;;;;;;;4.00;3.03;;;16.70;60.40;;;;;;4881082;29;20325;-75
2022/04/11 10:57:08;;;;;;;4.17;2.70;;;16.20;62.20;;;;;;4881761;29;20248;-76
2022/04/11 11:00:02;;;;;;;4.07;2.60;;;16.60;60.30;;;;;;4881635;29;20689;-76
2022/04/11 11:03:09;;;;;;;4.83;2.80;;;16.10;60.00;;;;;;4883615;29;20226;-77
2022/04/11 11:05:39;;;;;;;4.30;3.03;;;17.60;61.60;;;;;;4881536;29;20194;-76
2022/04/11 11:08:28;;;;;;;4.30;3.23;;;16.50;63.40;;;;;;4881998;29;20266;-74
2022/04/11 11:10:58;;;;;;;5.60;3.20;;;16.40;63.90;;;;;;4881519;29;20224;-75
2022/04/11 11:13:39;;;;;;;6.23;3.20;;;15.90;64.80;;;;;;4882703;29;20287;-77
2022/04/11 11:16:35;;;;;;;5.30;3.40;;;15.30;65.50;;;;;;4881776;29;20229;-74
2022/04/11 11:19:20;;;;;;;3.53;2.43;;;16.00;67.80;;;;;;4880707;29;20667;-75
2022/04/11 11:22:04;;;;;;;4.50;2.60;;;16.80;61.90;;;;;;4888244;29;20218;-73
2022/04/11 11:24:35;;;;;;;3.93;2.93;;;16.80;63.70;;;;;;4883252;29;20218;-74
2022/04/11 11:27:06;;;;;;;3.27;2.80;;;17.10;62.30;;;;;;4881629;29;20210;-77
2022/04/11 11:29:43;;;;;;;5.73;3.10;;;17.00;64.50;;;;;;4868353;29;20210;-75
2022/04/11 11:32:14;;;;;;;4.33;2.90;;;16.50;62.70;;;;;;4880033;29;20800;-73
2022/04/11 11:34:43;;;;;;;3.57;2.50;;;16.00;64.30;;;;;;4881029;29;20672;-73
2022/04/11 11:37:13;;;;;;;3.90;3.20;;;16.00;73.90;;;;;;4880064;29;20241;-74
2022/04/11 11:39:43;;;;;;;5.43;3.57;;;15.70;64.70;;;;;;4880084;29;20266;-75
2022/04/11 11:42:14;;;;;;;4.67;3.43;;;15.20;67.70;;;;;;4880847;29;20214;-75
2022/04/11 11:44:46;;;;;;;4.53;3.40;;;14.70;69.60;;;;;;4881093;29;20214;-75
2022/04/11 11:47:15;;;;;;;5.63;3.70;;;14.10;70.60;;;;;;4881672;29;20258;-75
2022/04/11 11:49:45;;;;;;;5.53;3.30;;;14.10;70.50;;;;;;4880922;29;20226;-76
2022/04/11 11:52:14;;;;;;;5.23;3.37;;;13.90;70.30;;;;;;4881247;29;20252;-76
2022/04/11 11:54:44;;;;;;;6.20;3.70;;;13.80;69.90;;;;;;4881591;29;20206;-74
2022/04/11 11:57:15;;;;;;;4.83;3.70;;;13.50;69.80;;;;;;4880870;29;20253;-76
2022/04/11 11:59:53;;;;;;;4.83;3.30;;;12.80;71.70;;;;;;4879926;29;20736;-77
2022/04/11 12:05:21;;;;;;;5.03;3.33;;;13.20;72.30;;;;;;4880184;29;20206;-75
2022/04/11 12:07:52;;;;;;;4.63;2.90;;;13.70;73.60;;;;;;4865693;29;20645;-77
2022/04/11 12:10:20;;;;;;;5.70;3.57;;;13.80;69.00;;;;;;4876402;29;20307;-77
2022/04/11 12:12:53;;;;;;;5.00;3.57;;;13.70;70.90;;;;;;4880087;29;20217;-74
2022/04/11 12:15:25;;;;;;;5.27;3.50;;;14.00;69.60;;;;;;4880065;29;20306;-75
2022/04/11 12:18:03;;;;;;;5.57;3.53;;;14.10;70.60;;;;;;4880022;29;20233;-79
2022/04/11 12:20:33;;;;;;;7.80;3.50;;;13.40;70.10;;;;;;4879585;29;20234;-77
2022/04/11 12:23:04;;;;;;;4.63;2.80;;;13.50;71.00;;;;;;4879461;29;20232;-75
2022/04/11 12:25:34;;;;;;;6.17;3.57;;;13.60;71.30;;;;;;4879997;29;20215;-76
2022/04/11 12:28:18;;;;;;;3.90;3.40;;;13.70;69.10;;;;;;4880196;29;20214;-75
2022/04/11 12:30:50;;;;;;;5.07;3.37;;;13.70;72.90;;;;;;4879793;29;20246;-76
2022/04/11 12:33:34;;;;;;;4.00;3.13;;;13.70;69.40;;;;;;4879416;29;20296;-77
2022/04/11 12:36:12;;;;;;;4.20;3.20;;;13.80;70.50;;;;;;4877971;29;20621;-77
2022/04/11 12:38:42;;;;;;;4.13;3.40;;;14.10;71.80;;;;;;4879469;29;20234;-75
2022/04/11 12:41:28;;;;;;;3.80;3.00;;;14.20;68.70;;;;;;4879542;29;20253;-76
2022/04/11 12:44:08;;;;;;;5.43;3.40;;;14.20;73.50;;;;;;4879342;29;20218;-77
2022/04/11 12:46:39;;;;;;;5.03;3.43;;;14.70;71.00;;;;;;4879419;29;20210;-79
2022/04/11 12:49:09;;;;;;;7.50;3.50;;;14.80;69.00;;;;;;4879520;29;20389;-79
2022/04/11 12:51:39;;;;;;;5.00;3.20;;;14.20;69.60;;;;;;4879996;29;20210;-76
2022/04/11 12:54:11;;;;;;;3.80;2.83;;;13.90;70.50;;;;;;4880283;29;20206;-77
2022/04/11 12:56:42;;;;;;;3.90;3.00;;;14.20;71.40;;;;;;4879406;29;20202;-75
2022/04/11 12:59:11;;;;;;;5.57;3.30;;;14.10;68.80;;;;;;4878022;29;20683;-75
2022/04/11 13:01:56;;;;;;;3.83;3.13;;;13.50;72.10;;;;;;4883902;29;20242;-73
2022/04/11 13:04:25;;;;;;;6.00;3.30;;;13.70;72.60;;;;;;4885286;29;20260;-74
2022/04/11 13:06:54;;;;;;;4.80;3.40;;;14.00;73.20;;;;;;4881617;29;20230;-75
2022/04/11 13:09:27;;;;;;;5.07;3.30;;;14.10;73.60;;;;;;4878551;29;20309;-76
2022/04/11 13:11:56;;;;;;;7.27;3.37;;;14.20;73.50;;;;;;4878995;29;20249;-75
2022/04/11 13:14:35;;;;;;;4.73;3.33;;;14.80;74.60;;;;;;4878659;29;20205;-73
2022/04/11 13:19:52;;;;;;;4.80;3.00;;;14.60;73.40;;;;;;4862677;29;20207;-75
2022/04/11 13:22:21;;;;;;;4.30;3.47;;;15.10;74.10;;;;;;4860413;29;20227;-75
2022/04/11 13:24:51;;;;;;;5.40;3.03;;;14.10;69.90;;;;;;4860292;29;20705;-73
2022/04/11 13:27:19;;;;;;;5.47;4.20;;;14.20;73.10;;;;;;4859917;29;20215;-77
2022/04/11 13:29:49;;;;;;;4.67;3.10;;;14.40;74.60;;;;;;4860722;29;20355;-77
2022/04/11 13:32:38;;;;;;;8.10;3.40;;;14.10;71.20;;;;;;4860348;29;20250;-79
2022/04/11 13:35:09;;;;;;;4.43;3.50;;;13.80;73.10;;;;;;4871104;29;20237;-75
2022/04/11 13:37:38;;;;;;;4.57;3.20;;;13.60;74.70;;;;;;4879077;29;20230;-73
2022/04/11 13:40:08;;;;;;;3.80;3.13;;;13.80;75.50;;;;;;4878492;29;20318;-75
2022/04/11 13:42:36;;;;;;;8.47;4.90;;;14.20;76.20;;;;;;4877865;29;20565;-76
2022/04/11 13:45:25;;;;;;;5.77;3.53;;;14.00;72.60;;;;;;4878329;29;20234;-79
2022/04/11 13:47:55;;;;;;;10.73;3.73;;;14.30;77.50;;;;;;4878886;29;20300;-75
2022/04/11 13:50:23;;;;;;;6.37;3.47;;;14.50;75.20;;;;;;4878865;29;20543;-77
2022/04/11 13:52:51;;;;;;;6.90;4.30;;;14.60;73.70;;;;;;4879154;29;20214;-76
2022/04/11 13:55:19;;;;;;;6.63;3.73;;;14.80;75.30;;;;;;4877927;29;20202;-76
2022/04/11 13:57:48;;;;;;;5.97;3.10;;;14.90;73.20;;;;;;4879130;29;20243;-77
2022/04/11 14:00:19;;;;;;;4.30;3.40;;;15.20;75.40;;;;;;4878682;29;20245;-73
2022/04/11 14:02:48;;;;;;;6.13;3.40;;;14.80;72.80;;;;;;4879065;29;20218;-74
2022/04/11 14:05:18;;;;;;;4.17;3.10;;;14.50;71.40;;;;;;4878151;29;20289;-74
2022/04/11 14:07:46;;;;;;;4.40;3.30;;;14.60;74.30;;;;;;4878500;29;20194;-74
2022/04/11 14:10:17;;;;;;;6.57;3.67;;;14.80;74.40;;;;;;4878279;29;20218;-74
2022/04/11 14:12:49;;;;;;;6.37;4.77;;;14.90;73.90;;;;;;4878894;29;20222;-75
2022/04/11 14:15:17;;;;;;;6.47;4.47;;;14.20;73.50;;;;;;4883374;29;20194;-73
2022/04/11 14:17:48;;;;;;;6.30;4.07;;;13.80;75.50;;;;;;4885641;29;20366;-73
2022/04/11 14:20:17;;;;;;;7.20;4.40;;;14.00;76.90;;;;;;4883273;29;20214;-74
2022/04/11 14:22:46;;;;;;;5.33;4.20;;;14.00;76.90;;;;;;4878961;29;20313;-75
2022/04/11 14:25:14;;;;;;;6.43;4.27;;;14.20;77.00;;;;;;4878308;29;20262;-78
2022/04/11 14:28:02;;;;;;;7.50;4.30;;;14.30;75.30;;;;;;4878501;29;20317;-76
2022/04/11 14:30:38;;;;;;;6.50;3.70;;;14.10;75.60;;;;;;4877776;29;20199;-73
2022/04/11 14:33:09;;;;;;;6.90;3.90;;;14.60;77.60;;;;;;4873014;29;20293;-73
2022/04/11 14:35:40;;;;;;;6.90;3.80;;;14.60;76.10;;;;;;4877411;29;20652;-74
2022/04/11 14:38:09;;;;;;;5.67;3.80;;;14.80;75.00;;;;;;4877069;29;20234;-73
2022/04/11 14:40:39;;;;;;;5.23;3.87;;;14.90;74.70;;;;;;4876803;29;20689;-77
2022/04/11 14:43:08;;;;;;;8.03;3.50;;;15.00;75.60;;;;;;4877948;29;20259;-77
2022/04/11 14:45:36;;;;;;;5.20;3.73;;;15.00;74.60;;;;;;4878208;29;20651;-77
2022/04/11 14:48:09;;;;;;;6.53;3.53;;;15.00;74.50;;;;;;4877374;29;20218;-78
2022/04/11 14:50:40;;;;;;;5.20;3.90;;;14.90;74.20;;;;;;4877933;29;20215;-77
2022/04/11 14:53:10;;;;;;;8.20;4.20;;;14.80;74.90;;;;;;4877708;29;20206;-74
2022/04/11 14:55:46;;;;;;;7.37;4.50;;;14.40;75.30;;;;;;4878022;29;20224;-77
2022/04/11 14:58:15;;;;;;;5.27;3.83;;;14.20;74.80;;;;;;4877531;29;20214;-78
2022/04/11 15:00:44;;;;;;;6.43;3.73;;;14.00;74.40;;;;;;4877211;29;20305;-77
2022/04/11 15:03:12;;;;;;;7.77;3.80;;;13.70;74.90;;;;;;4877478;29;20222;-74
2022/04/11 15:05:43;;;;;;;4.70;3.40;;;13.60;76.80;;;;;;4877162;29;20709;-75
2022/04/11 15:08:11;;;;;;;5.03;3.43;;;13.80;76.50;;;;;;4880257;29;20266;-75
2022/04/11 15:10:39;;;;;;;5.17;3.70;;;13.90;76.10;;;;;;4881073;29;20360;-78
2022/04/11 15:13:09;;;;;;;6.30;3.90;;;14.20;76.00;;;;;;4880399;29;20203;-74
2022/04/11 15:15:37;;;;;;;4.90;3.57;;;14.30;75.60;;;;;;4880973;29;20305;-76
2022/04/11 15:18:06;;;;;;;4.37;3.40;;;14.30;75.80;;;;;;4880504;29;20673;-78
2022/04/11 15:20:34;;;;;;;4.87;3.50;;;14.30;73.60;;;;;;4880618;29;20302;-77
2022/04/11 15:23:06;;;;;;;5.80;3.17;;;14.00;74.40;;;;;;4880982;29;20225;-76
2022/04/11 15:25:34;;;;;;;5.87;3.63;;;14.10;77.90;;;;;;4881138;29;20325;-77
2022/04/11 15:28:02;;;;;;;5.03;3.90;;;13.90;74.30;;;;;;4880954;29;20274;-75
2022/04/11 15:30:36;;;;;;;5.00;3.23;;;13.90;75.40;;;;;;4880759;29;20194;-78
2022/04/11 15:33:09;;;;;;;6.83;3.27;;;13.60;75.90;;;;;;4881242;29;20687;-77
2022/04/11 15:35:37;;;;;;;6.03;3.43;;;13.30;76.40;;;;;;4869747;29;20214;-76
2022/04/11 15:38:10;;;;;;;7.20;3.63;;;13.20;76.40;;;;;;4880576;29;20268;-76
2022/04/11 15:40:38;;;;;;;4.93;3.67;;;13.20;78.50;;;;;;4880485;29;20210;-78
2022/04/11 15:43:08;;;;;;;5.90;3.37;;;13.40;76.40;;;;;;4879595;29;20250;-77
2022/04/11 15:45:37;;;;;;;4.70;3.33;;;13.50;76.40;;;;;;4880362;29;20668;-75
2022/04/11 15:48:06;;;;;;;4.50;3.27;;;13.40;74.30;;;;;;4880386;29;20222;-74
2022/04/11 15:50:34;;;;;;;6.80;3.33;;;13.40;76.20;;;;;;4880636;29;20658;-79
2022/04/11 15:53:23;;;;;;;6.60;3.40;;;13.40;75.40;;;;;;4879861;29;20206;-79
2022/04/11 15:55:52;;;;;;;4.77;3.10;;;13.50;75.50;;;;;;4883431;29;20269;-78
2022/04/11 15:58:20;;;;;;;5.73;3.30;;;13.50;75.80;;;;;;4880455;29;20264;-77
2022/04/11 16:00:48;;;;;;;4.77;3.17;;;13.40;75.50;;;;;;4890645;29;20219;-76
2022/04/11 16:03:18;;;;;;;3.40;2.77;;;13.30;76.10;;;;;;4883880;29;20229;-74
2022/04/11 16:05:47;;;;;;;5.17;3.40;;;13.30;76.70;;;;;;4883865;29;20325;-76
2022/04/11 16:08:16;;;;;;;5.77;3.50;;;13.20;75.80;;;;;;4881467;29;20253;-74
2022/04/11 16:10:45;;;;;;;5.00;3.63;;;13.20;76.30;;;;;;4879769;29;20219;-77
2022/04/11 16:13:13;;;;;;;6.73;3.43;;;13.00;77.50;;;;;;4872998;29;20668;-77
2022/04/11 16:15:41;;;;;;;5.70;3.50;;;12.90;76.50;;;;;;4881247;29;20669;-76
2022/04/11 16:18:09;;;;;;;4.47;3.60;;;13.00;78.70;;;;;;4880028;29;20252;-75
2022/04/11 16:20:44;;;;;;;4.23;3.13;;;12.90;77.50;;;;;;4888477;29;20218;-75
2022/04/11 16:23:13;;;;;;;5.13;3.10;;;12.90;78.30;;;;;;4880018;29;20301;-74
2022/04/11 16:25:42;;;;;;;5.63;3.17;;;12.90;77.00;;;;;;4880125;29;20265;-75
2022/04/11 16:28:11;;;;;;;5.83;3.00;;;12.90;78.60;;;;;;4884354;29;20240;-74
2022/04/11 16:30:40;;;;;;;4.80;3.37;;;12.90;77.70;;;;;;4888022;29;20221;-76
2022/04/11 16:33:08;;;;;;;6.37;3.23;;;12.60;75.80;;;;;;4879790;29;20257;-77
2022/04/11 16:35:37;;;;;;;5.83;3.53;;;12.60;77.60;;;;;;4879551;29;20255;-76
2022/04/11 16:38:05;;;;;;;8.20;3.40;;;12.50;76.50;;;;;;4879765;29;20248;-73
2022/04/11 16:40:34;;;;;;;6.60;3.40;;;12.50;77.30;;;;;;4879411;29;20249;-73
2022/04/11 16:43:03;;;;;;;6.77;3.27;;;12.40;77.20;;;;;;4879908;29;20225;-77
2022/04/11 16:45:33;;;;;;;4.90;3.40;;;12.20;77.00;;;;;;4879255;29;20265;-75
2022/04/11 16:48:01;;;;;;;5.60;3.20;;;12.20;78.40;;;;;;4879856;29;20214;-75
2022/04/11 16:50:29;;;;;;;6.90;3.20;;;12.20;77.80;;;;;;4879347;29;20291;-75
2022/04/11 16:52:57;;;;;;;8.10;3.57;;;12.10;78.00;;;;;;4879230;29;20214;-75
2022/04/11 16:55:25;;;;;;;6.90;3.43;;;12.00;78.60;;;;;;4878852;29;20203;-78
2022/04/11 16:57:58;;;;;;;5.77;3.30;;;12.00;79.40;;;;;;4879171;29;20620;-78
2022/04/11 17:00:27;;;;;;;6.10;3.43;;;12.00;79.70;;;;;;4878776;29;20286;-76
2022/04/11 17:02:57;;;;;;;4.57;3.47;;;11.90;80.50;;;;;;4880416;29;20719;-75
2022/04/11 17:05:25;;;;;;;4.53;3.40;;;11.90;80.90;;;;;;4879870;29;20249;-79
2022/04/11 17:07:54;;;;;;;5.00;3.47;;;11.80;81.60;;;;;;4878700;29;20225;-79
2022/04/11 17:10:24;;;;;;;5.87;3.83;;;11.80;81.80;;;;;;4878575;29;20703;-78
2022/04/11 17:12:52;;;;;;;7.03;3.43;;;11.70;82.50;;;;;;4878734;29;20214;-76
2022/04/11 17:20:53;;;;;;;7.23;3.90;;;11.40;85.60;;;;;;4878784;29;20245;-75